sensor_id;sensor_type;location;lat;lon;timestamp;temperature;humidity
9043;DHT22;4556;49.150;8.808;2023-03-04T00:01:41;-1.80;99.90
9043;DHT22;4556;49.150;8.808;2023-03-04T00:04:08;-1.90;99.90
9043;DHT22;4556;49.150;8.808;2023-03-04T00:06:36;-1.90;99.90
9043;DHT22;4556;49.150;8.808;2023-03-04T00:09:03;-2.00;99.90
9043;DHT22;4556;49.150;8.808;2023-03-04T00:11:31;-2.20;99.90
9043;DHT22;4556;49.150;8.808;2023-03-04T00:13:58;-2.10;99.90
9043;DHT22;4556;49.150;8.808;2023-03-04T00:16:25;-2.00;99.90
9043;DHT22;4556;49.150;8.808;2023-03-04T00:18:55;-2.00;99.90
9043;DHT22;4556;49.150;8.808;2023-03-04T00:21:23;-2.10;99.90
9043;DHT22;4556;49.150;8.808;2023-03-04T00:23:50;-2.20;99.90
9043;DHT22;4556;49.150;8.808;2023-03-04T00:26:18;-2.10;99.90
9043;DHT22;4556;49.150;8.808;2023-03-04T00:28:45;-2.00;99.90
9043;DHT22;4556;49.150;8.808;2023-03-04T00:31:12;-2.10;99.90
9043;DHT22;4556;49.150;8.808;2023-03-04T00:33:39;-2.20;99.90
9043;DHT22;4556;49.150;8.808;2023-03-04T00:36:09;-2.20;99.90
9043;DHT22;4556;49.150;8.808;2023-03-04T00:38:36;-2.20;99.90
9043;DHT22;4556;49.150;8.808;2023-03-04T00:41:03;-2.10;99.90
9043;DHT22;4556;49.150;8.808;2023-03-04T00:43:31;-2.20;99.90
9043;DHT22;4556;49.150;8.808;2023-03-04T00:45:58;-2.40;99.90
9043;DHT22;4556;49.150;8.808;2023-03-04T00:48:25;-2.60;99.90
9043;DHT22;4556;49.150;8.808;2023-03-04T00:50:52;-2.40;99.90
9043;DHT22;4556;49.150;8.808;2023-03-04T00:53:21;-2.30;99.90
9043;DHT22;4556;49.150;8.808;2023-03-04T00:55:48;-2.30;99.90
9043;DHT22;4556;49.150;8.808;2023-03-04T00:58:15;-2.40;99.90
9043;DHT22;4556;49.150;8.808;2023-03-04T01:00:43;-2.40;99.90
9043;DHT22;4556;49.150;8.808;2023-03-04T01:03:10;-2.30;99.90
9043;DHT22;4556;49.150;8.808;2023-03-04T01:05:37;-2.40;99.90
9043;DHT22;4556;49.150;8.808;2023-03-04T01:08:04;-2.50;99.90
9043;DHT22;4556;49.150;8.808;2023-03-04T01:10:32;-1.10;99.90
9043;DHT22;4556;49.150;8.808;2023-03-04T01:12:59;-2.70;99.90
9043;DHT22;4556;49.150;8.808;2023-03-04T01:15:27;-2.70;99.90
9043;DHT22;4556;49.150;8.808;2023-03-04T01:17:54;-2.60;99.90
9043;DHT22;4556;49.150;8.808;2023-03-04T01:20:21;-2.70;99.90
9043;DHT22;4556;49.150;8.808;2023-03-04T01:22:48;-2.70;99.90
9043;DHT22;4556;49.150;8.808;2023-03-04T01:25:16;-2.70;99.90
9043;DHT22;4556;49.150;8.808;2023-03-04T01:27:44;-2.80;99.90
9043;DHT22;4556;49.150;8.808;2023-03-04T01:30:12;-2.80;99.90
9043;DHT22;4556;49.150;8.808;2023-03-04T01:32:39;-2.70;99.90
9043;DHT22;4556;49.150;8.808;2023-03-04T01:35:06;-2.70;99.90
9043;DHT22;4556;49.150;8.808;2023-03-04T01:37:33;-2.80;99.90
9043;DHT22;4556;49.150;8.808;2023-03-04T01:40:00;-2.70;99.90
9043;DHT22;4556;49.150;8.808;2023-03-04T01:42:30;-2.70;99.90
9043;DHT22;4556;49.150;8.808;2023-03-04T01:44:59;-2.70;99.90
9043;DHT22;4556;49.150;8.808;2023-03-04T01:47:28;-2.80;99.90
9043;DHT22;4556;49.150;8.808;2023-03-04T01:49:57;-2.70;99.90
9043;DHT22;4556;49.150;8.808;2023-03-04T01:52:27;-2.70;99.90
9043;DHT22;4556;49.150;8.808;2023-03-04T01:54:54;-2.60;99.90
9043;DHT22;4556;49.150;8.808;2023-03-04T01:57:22;-2.80;99.90
9043;DHT22;4556;49.150;8.808;2023-03-04T02:00:32;-2.90;99.90
9043;DHT22;4556;49.150;8.808;2023-03-04T02:03:03;-2.90;99.90
9043;DHT22;4556;49.150;8.808;2023-03-04T02:05:31;-2.80;99.90
9043;DHT22;4556;49.150;8.808;2023-03-04T02:07:59;-2.80;99.90
9043;DHT22;4556;49.150;8.808;2023-03-04T02:10:27;-2.90;99.90
9043;DHT22;4556;49.150;8.808;2023-03-04T02:12:54;-2.80;99.90
9043;DHT22;4556;49.150;8.808;2023-03-04T02:15:24;-2.80;99.90
9043;DHT22;4556;49.150;8.808;2023-03-04T02:17:51;-2.80;99.90
9043;DHT22;4556;49.150;8.808;2023-03-04T02:20:29;-3.00;99.90
9043;DHT22;4556;49.150;8.808;2023-03-04T02:23:02;-3.00;99.90
9043;DHT22;4556;49.150;8.808;2023-03-04T02:25:36;-3.00;99.90
9043;DHT22;4556;49.150;8.808;2023-03-04T02:28:06;-3.00;99.90
9043;DHT22;4556;49.150;8.808;2023-03-04T02:30:33;-3.00;99.90
9043;DHT22;4556;49.150;8.808;2023-03-04T02:33:00;-3.00;99.90
9043;DHT22;4556;49.150;8.808;2023-03-04T02:35:27;-3.10;99.90
9043;DHT22;4556;49.150;8.808;2023-03-04T02:37:55;-3.00;99.90
9043;DHT22;4556;49.150;8.808;2023-03-04T02:40:26;-3.10;99.90
9043;DHT22;4556;49.150;8.808;2023-03-04T02:42:57;-3.20;99.90
9043;DHT22;4556;49.150;8.808;2023-03-04T02:45:49;-3.10;99.90
9043;DHT22;4556;49.150;8.808;2023-03-04T02:48:19;-3.10;99.90
9043;DHT22;4556;49.150;8.808;2023-03-04T02:50:49;-3.10;99.90
9043;DHT22;4556;49.150;8.808;2023-03-04T02:53:16;-3.20;99.90
9043;DHT22;4556;49.150;8.808;2023-03-04T02:55:45;-3.30;99.90
9043;DHT22;4556;49.150;8.808;2023-03-04T02:58:13;-3.10;99.90
9043;DHT22;4556;49.150;8.808;2023-03-04T03:00:42;-3.10;99.90
9043;DHT22;4556;49.150;8.808;2023-03-04T03:03:09;-3.20;99.90
9043;DHT22;4556;49.150;8.808;2023-03-04T03:05:36;-3.30;99.90
9043;DHT22;4556;49.150;8.808;2023-03-04T03:08:04;-3.10;99.90
9043;DHT22;4556;49.150;8.808;2023-03-04T03:10:31;-3.20;99.90
9043;DHT22;4556;49.150;8.808;2023-03-04T03:12:58;-3.20;99.90
9043;DHT22;4556;49.150;8.808;2023-03-04T03:15:25;-3.20;99.90
9043;DHT22;4556;49.150;8.808;2023-03-04T03:17:55;-3.30;99.90
9043;DHT22;4556;49.150;8.808;2023-03-04T03:20:22;-3.20;99.90
9043;DHT22;4556;49.150;8.808;2023-03-04T03:22:49;-3.30;99.90
9043;DHT22;4556;49.150;8.808;2023-03-04T03:25:16;-3.40;99.90
9043;DHT22;4556;49.150;8.808;2023-03-04T03:27:43;-2.70;99.90
9043;DHT22;4556;49.150;8.808;2023-03-04T03:30:12;-3.20;99.90
9043;DHT22;4556;49.150;8.808;2023-03-04T03:32:39;-3.30;99.90
9043;DHT22;4556;49.150;8.808;2023-03-04T03:35:08;-3.30;99.90
9043;DHT22;4556;49.150;8.808;2023-03-04T03:37:35;-3.30;99.90
9043;DHT22;4556;49.150;8.808;2023-03-04T03:40:02;-3.30;99.90
9043;DHT22;4556;49.150;8.808;2023-03-04T03:42:30;-3.30;99.90
9043;DHT22;4556;49.150;8.808;2023-03-04T03:44:57;-3.30;99.90
9043;DHT22;4556;49.150;8.808;2023-03-04T03:47:24;-3.50;99.90
9043;DHT22;4556;49.150;8.808;2023-03-04T03:49:51;-3.40;99.90
9043;DHT22;4556;49.150;8.808;2023-03-04T03:52:20;-3.40;99.90
9043;DHT22;4556;49.150;8.808;2023-03-04T03:54:47;-3.60;99.90
9043;DHT22;4556;49.150;8.808;2023-03-04T03:57:14;-3.80;99.90
9043;DHT22;4556;49.150;8.808;2023-03-04T03:59:43;-3.70;99.90
9043;DHT22;4556;49.150;8.808;2023-03-04T04:02:10;-3.70;99.90
9043;DHT22;4556;49.150;8.808;2023-03-04T04:04:37;-3.70;99.90
9043;DHT22;4556;49.150;8.808;2023-03-04T04:07:04;-3.80;99.90
9043;DHT22;4556;49.150;8.808;2023-03-04T04:09:33;-3.70;99.90
9043;DHT22;4556;49.150;8.808;2023-03-04T04:12:00;-3.70;99.90
9043;DHT22;4556;49.150;8.808;2023-03-04T04:14:27;-3.70;99.90
9043;DHT22;4556;49.150;8.808;2023-03-04T04:16:54;-3.80;99.90
9043;DHT22;4556;49.150;8.808;2023-03-04T04:19:21;-3.90;99.90
9043;DHT22;4556;49.150;8.808;2023-03-04T04:21:48;-4.10;99.90
9043;DHT22;4556;49.150;8.808;2023-03-04T04:24:16;-4.10;99.90
9043;DHT22;4556;49.150;8.808;2023-03-04T04:26:44;-3.90;99.90
9043;DHT22;4556;49.150;8.808;2023-03-04T04:29:13;-3.90;99.90
9043;DHT22;4556;49.150;8.808;2023-03-04T04:31:40;-3.90;99.90
9043;DHT22;4556;49.150;8.808;2023-03-04T04:34:08;-3.90;99.90
9043;DHT22;4556;49.150;8.808;2023-03-04T04:36:35;-4.00;99.90
9043;DHT22;4556;49.150;8.808;2023-03-04T04:39:02;-4.00;99.90
9043;DHT22;4556;49.150;8.808;2023-03-04T04:41:34;-4.00;99.90
9043;DHT22;4556;49.150;8.808;2023-03-04T04:44:03;-4.10;99.90
9043;DHT22;4556;49.150;8.808;2023-03-04T04:46:31;-4.30;99.90
9043;DHT22;4556;49.150;8.808;2023-03-04T04:48:58;-4.30;99.90
9043;DHT22;4556;49.150;8.808;2023-03-04T04:51:25;-4.10;99.90
9043;DHT22;4556;49.150;8.808;2023-03-04T04:53:52;-4.00;99.90
9043;DHT22;4556;49.150;8.808;2023-03-04T04:56:22;-4.10;99.90
9043;DHT22;4556;49.150;8.808;2023-03-04T04:58:51;-4.20;99.90
9043;DHT22;4556;49.150;8.808;2023-03-04T05:01:20;-4.20;99.90
9043;DHT22;4556;49.150;8.808;2023-03-04T05:03:47;-4.20;99.90
9043;DHT22;4556;49.150;8.808;2023-03-04T05:06:18;-4.30;99.90
9043;DHT22;4556;49.150;8.808;2023-03-04T05:08:45;-4.30;99.90
9043;DHT22;4556;49.150;8.808;2023-03-04T05:11:13;-4.40;99.90
9043;DHT22;4556;49.150;8.808;2023-03-04T05:13:40;-4.30;99.90
9043;DHT22;4556;49.150;8.808;2023-03-04T05:16:07;-4.20;99.90
9043;DHT22;4556;49.150;8.808;2023-03-04T05:18:36;-4.30;99.90
9043;DHT22;4556;49.150;8.808;2023-03-04T05:21:04;-4.50;99.90
9043;DHT22;4556;49.150;8.808;2023-03-04T05:23:33;-4.50;99.90
9043;DHT22;4556;49.150;8.808;2023-03-04T05:26:01;-4.50;99.90
9043;DHT22;4556;49.150;8.808;2023-03-04T05:28:29;-4.50;99.90
9043;DHT22;4556;49.150;8.808;2023-03-04T05:30:56;-4.30;99.90
9043;DHT22;4556;49.150;8.808;2023-03-04T05:33:23;-4.20;99.90
9043;DHT22;4556;49.150;8.808;2023-03-04T05:35:52;-4.30;99.90
9043;DHT22;4556;49.150;8.808;2023-03-04T05:38:20;-4.20;99.90
9043;DHT22;4556;49.150;8.808;2023-03-04T05:40:47;-4.20;99.90
9043;DHT22;4556;49.150;8.808;2023-03-04T05:43:15;-4.20;99.90
9043;DHT22;4556;49.150;8.808;2023-03-04T05:45:42;-4.20;99.90
9043;DHT22;4556;49.150;8.808;2023-03-04T05:48:09;-4.20;99.90
9043;DHT22;4556;49.150;8.808;2023-03-04T05:50:36;-4.10;99.90
9043;DHT22;4556;49.150;8.808;2023-03-04T05:53:05;-4.10;99.90
9043;DHT22;4556;49.150;8.808;2023-03-04T05:55:32;-4.10;99.90
9043;DHT22;4556;49.150;8.808;2023-03-04T05:57:59;-4.00;99.90
9043;DHT22;4556;49.150;8.808;2023-03-04T06:00:26;-3.80;99.90
9043;DHT22;4556;49.150;8.808;2023-03-04T06:02:53;-3.70;99.90
9043;DHT22;4556;49.150;8.808;2023-03-04T06:05:21;-3.90;99.90
9043;DHT22;4556;49.150;8.808;2023-03-04T06:07:49;-3.70;99.90
9043;DHT22;4556;49.150;8.808;2023-03-04T06:10:18;-1.10;99.90
9043;DHT22;4556;49.150;8.808;2023-03-04T06:12:45;-3.40;99.90
9043;DHT22;4556;49.150;8.808;2023-03-04T06:17:40;-3.10;99.90
9043;DHT22;4556;49.150;8.808;2023-03-04T06:20:09;-3.10;99.90
9043;DHT22;4556;49.150;8.808;2023-03-04T06:22:37;-3.00;99.90
9043;DHT22;4556;49.150;8.808;2023-03-04T06:25:05;-2.90;99.90
9043;DHT22;4556;49.150;8.808;2023-03-04T06:27:34;-2.80;99.90
9043;DHT22;4556;49.150;8.808;2023-03-04T06:30:01;-2.10;99.90
9043;DHT22;4556;49.150;8.808;2023-03-04T06:32:28;-2.70;99.90
9043;DHT22;4556;49.150;8.808;2023-03-04T06:34:55;-2.70;99.90
9043;DHT22;4556;49.150;8.808;2023-03-04T06:37:22;-2.60;99.90
9043;DHT22;4556;49.150;8.808;2023-03-04T06:39:50;-2.60;99.90
9043;DHT22;4556;49.150;8.808;2023-03-04T06:42:17;-2.50;99.90
9043;DHT22;4556;49.150;8.808;2023-03-04T06:44:47;-2.40;99.90
9043;DHT22;4556;49.150;8.808;2023-03-04T06:47:15;-0.60;99.90
9043;DHT22;4556;49.150;8.808;2023-03-04T06:49:43;-2.30;99.90
9043;DHT22;4556;49.150;8.808;2023-03-04T06:52:21;-2.10;99.90
9043;DHT22;4556;49.150;8.808;2023-03-04T06:54:49;-2.00;99.90
9043;DHT22;4556;49.150;8.808;2023-03-04T06:57:16;-1.90;99.90
9043;DHT22;4556;49.150;8.808;2023-03-04T06:59:44;-1.90;99.90
9043;DHT22;4556;49.150;8.808;2023-03-04T07:02:11;-1.80;99.90
9043;DHT22;4556;49.150;8.808;2023-03-04T07:04:38;-1.70;99.90
9043;DHT22;4556;49.150;8.808;2023-03-04T07:07:06;-1.60;99.90
9043;DHT22;4556;49.150;8.808;2023-03-04T07:09:33;-1.50;99.90
9043;DHT22;4556;49.150;8.808;2023-03-04T07:12:00;-1.40;99.90
9043;DHT22;4556;49.150;8.808;2023-03-04T07:14:27;-1.30;99.90
9043;DHT22;4556;49.150;8.808;2023-03-04T07:16:56;-1.20;99.90
9043;DHT22;4556;49.150;8.808;2023-03-04T07:19:23;-1.20;99.90
9043;DHT22;4556;49.150;8.808;2023-03-04T07:21:50;-1.10;99.90
9043;DHT22;4556;49.150;8.808;2023-03-04T07:24:17;-0.90;99.90
9043;DHT22;4556;49.150;8.808;2023-03-04T07:26:44;-0.90;99.90
9043;DHT22;4556;49.150;8.808;2023-03-04T07:29:12;-0.80;99.90
9043;DHT22;4556;49.150;8.808;2023-03-04T07:31:39;-0.80;99.90
9043;DHT22;4556;49.150;8.808;2023-03-04T07:34:09;-0.80;99.90
9043;DHT22;4556;49.150;8.808;2023-03-04T07:36:38;2.20;99.90
9043;DHT22;4556;49.150;8.808;2023-03-04T07:39:05;-0.70;99.90
9043;DHT22;4556;49.150;8.808;2023-03-04T07:41:32;-0.50;99.90
9043;DHT22;4556;49.150;8.808;2023-03-04T07:44:01;-0.50;99.90
9043;DHT22;4556;49.150;8.808;2023-03-04T07:46:28;-0.40;99.90
9043;DHT22;4556;49.150;8.808;2023-03-04T07:48:56;1.80;99.90
9043;DHT22;4556;49.150;8.808;2023-03-04T07:51:26;-0.20;99.90
9043;DHT22;4556;49.150;8.808;2023-03-04T07:53:55;-0.20;99.90
9043;DHT22;4556;49.150;8.808;2023-03-04T07:56:24;-0.20;99.90
9043;DHT22;4556;49.150;8.808;2023-03-04T07:58:52;-0.10;99.90
9043;DHT22;4556;49.150;8.808;2023-03-04T08:01:22;-0.10;99.90
9043;DHT22;4556;49.150;8.808;2023-03-04T08:03:50;-0.50;99.90
9043;DHT22;4556;49.150;8.808;2023-03-04T08:06:19;0.10;99.90
9043;DHT22;4556;49.150;8.808;2023-03-04T08:08:48;0.20;99.90
9043;DHT22;4556;49.150;8.808;2023-03-04T08:11:17;0.30;99.90
9043;DHT22;4556;49.150;8.808;2023-03-04T08:13:45;0.30;99.90
9043;DHT22;4556;49.150;8.808;2023-03-04T08:16:13;0.40;99.90
9043;DHT22;4556;49.150;8.808;2023-03-04T08:18:41;0.50;99.90
9043;DHT22;4556;49.150;8.808;2023-03-04T08:21:09;0.60;99.90
9043;DHT22;4556;49.150;8.808;2023-03-04T08:23:37;0.60;99.90
9043;DHT22;4556;49.150;8.808;2023-03-04T08:26:10;0.60;99.90
9043;DHT22;4556;49.150;8.808;2023-03-04T08:28:38;0.70;99.90
9043;DHT22;4556;49.150;8.808;2023-03-04T08:31:05;0.70;99.90
9043;DHT22;4556;49.150;8.808;2023-03-04T08:33:33;0.70;99.90
9043;DHT22;4556;49.150;8.808;2023-03-04T08:36:00;0.70;99.90
9043;DHT22;4556;49.150;8.808;2023-03-04T08:38:27;0.80;99.90
9043;DHT22;4556;49.150;8.808;2023-03-04T08:40:56;0.80;99.90
9043;DHT22;4556;49.150;8.808;2023-03-04T08:43:25;0.80;99.90
9043;DHT22;4556;49.150;8.808;2023-03-04T08:45:53;0.90;99.90
9043;DHT22;4556;49.150;8.808;2023-03-04T08:48:21;0.90;99.90
9043;DHT22;4556;49.150;8.808;2023-03-04T08:50:49;1.00;99.90
9043;DHT22;4556;49.150;8.808;2023-03-04T08:53:17;0.90;99.90
9043;DHT22;4556;49.150;8.808;2023-03-04T08:55:45;1.00;99.90
9043;DHT22;4556;49.150;8.808;2023-03-04T08:58:12;1.10;99.90
9043;DHT22;4556;49.150;8.808;2023-03-04T09:00:43;1.10;99.90
9043;DHT22;4556;49.150;8.808;2023-03-04T09:03:13;1.20;99.90
9043;DHT22;4556;49.150;8.808;2023-03-04T09:05:40;1.30;99.90
9043;DHT22;4556;49.150;8.808;2023-03-04T09:08:07;1.30;99.90
9043;DHT22;4556;49.150;8.808;2023-03-04T09:10:34;1.30;99.90
9043;DHT22;4556;49.150;8.808;2023-03-04T09:13:01;1.40;99.90
9043;DHT22;4556;49.150;8.808;2023-03-04T09:15:28;1.50;99.90
9043;DHT22;4556;49.150;8.808;2023-03-04T09:17:57;1.50;99.90
9043;DHT22;4556;49.150;8.808;2023-03-04T09:20:24;1.50;99.90
9043;DHT22;4556;49.150;8.808;2023-03-04T09:22:50;2.20;99.90
9043;DHT22;4556;49.150;8.808;2023-03-04T09:25:18;1.60;99.90
9043;DHT22;4556;49.150;8.808;2023-03-04T09:27:45;1.60;99.90
9043;DHT22;4556;49.150;8.808;2023-03-04T09:30:12;1.70;99.90
9043;DHT22;4556;49.150;8.808;2023-03-04T09:32:40;1.60;99.90
9043;DHT22;4556;49.150;8.808;2023-03-04T09:35:08;1.70;99.90
9043;DHT22;4556;49.150;8.808;2023-03-04T09:37:36;1.80;99.90
9043;DHT22;4556;49.150;8.808;2023-03-04T09:40:03;1.90;99.90
9043;DHT22;4556;49.150;8.808;2023-03-04T09:42:34;1.90;99.90
9043;DHT22;4556;49.150;8.808;2023-03-04T09:45:05;2.00;99.90
9043;DHT22;4556;49.150;8.808;2023-03-04T09:47:33;1.90;99.90
9043;DHT22;4556;49.150;8.808;2023-03-04T09:50:05;1.90;99.90
9043;DHT22;4556;49.150;8.808;2023-03-04T09:52:48;1.90;99.90
9043;DHT22;4556;49.150;8.808;2023-03-04T09:55:21;2.00;99.90
9043;DHT22;4556;49.150;8.808;2023-03-04T09:57:52;2.10;99.90
9043;DHT22;4556;49.150;8.808;2023-03-04T10:00:25;2.10;99.90
9043;DHT22;4556;49.150;8.808;2023-03-04T10:03:16;2.10;99.90
9043;DHT22;4556;49.150;8.808;2023-03-04T10:05:50;2.20;99.90
9043;DHT22;4556;49.150;8.808;2023-03-04T10:08:30;2.30;99.90
9043;DHT22;4556;49.150;8.808;2023-03-04T10:10:59;2.40;99.90
9043;DHT22;4556;49.150;8.808;2023-03-04T10:13:31;2.50;99.90
9043;DHT22;4556;49.150;8.808;2023-03-04T10:16:02;2.40;99.90
9043;DHT22;4556;49.150;8.808;2023-03-04T10:18:35;2.40;99.90
9043;DHT22;4556;49.150;8.808;2023-03-04T10:21:07;2.80;99.90
9043;DHT22;4556;49.150;8.808;2023-03-04T10:23:41;2.40;99.90
9043;DHT22;4556;49.150;8.808;2023-03-04T10:26:12;2.50;99.90
9043;DHT22;4556;49.150;8.808;2023-03-04T10:28:40;2.40;99.90
9043;DHT22;4556;49.150;8.808;2023-03-04T10:31:13;2.30;99.90
9043;DHT22;4556;49.150;8.808;2023-03-04T10:33:41;2.30;99.90
9043;DHT22;4556;49.150;8.808;2023-03-04T10:36:23;2.40;99.90
9043;DHT22;4556;49.150;8.808;2023-03-04T10:38:57;2.40;99.90
9043;DHT22;4556;49.150;8.808;2023-03-04T10:41:26;2.60;99.90
9043;DHT22;4556;49.150;8.808;2023-03-04T10:44:00;2.60;99.90
9043;DHT22;4556;49.150;8.808;2023-03-04T10:46:28;2.60;99.90
9043;DHT22;4556;49.150;8.808;2023-03-04T10:48:57;2.70;99.90
9043;DHT22;4556;49.150;8.808;2023-03-04T10:51:26;2.70;99.90
9043;DHT22;4556;49.150;8.808;2023-03-04T10:53:58;2.70;99.90
9043;DHT22;4556;49.150;8.808;2023-03-04T10:56:37;2.70;99.90
9043;DHT22;4556;49.150;8.808;2023-03-04T11:02:23;2.80;99.90
9043;DHT22;4556;49.150;8.808;2023-03-04T11:04:58;2.90;99.90
9043;DHT22;4556;49.150;8.808;2023-03-04T11:07:30;2.90;99.90
9043;DHT22;4556;49.150;8.808;2023-03-04T11:10:09;2.90;99.90
9043;DHT22;4556;49.150;8.808;2023-03-04T11:12:36;2.90;99.90
9043;DHT22;4556;49.150;8.808;2023-03-04T11:15:11;3.00;99.90
9043;DHT22;4556;49.150;8.808;2023-03-04T11:17:45;3.00;99.90
9043;DHT22;4556;49.150;8.808;2023-03-04T11:20:22;3.00;99.90
9043;DHT22;4556;49.150;8.808;2023-03-04T11:22:52;3.00;99.90
9043;DHT22;4556;49.150;8.808;2023-03-04T11:25:25;3.10;99.90
9043;DHT22;4556;49.150;8.808;2023-03-04T11:27:54;3.20;99.90
9043;DHT22;4556;49.150;8.808;2023-03-04T11:30:38;3.90;99.90
9043;DHT22;4556;49.150;8.808;2023-03-04T11:33:22;3.40;99.90
9043;DHT22;4556;49.150;8.808;2023-03-04T11:35:56;3.30;99.90
9043;DHT22;4556;49.150;8.808;2023-03-04T11:38:30;4.50;99.90
9043;DHT22;4556;49.150;8.808;2023-03-04T11:41:03;3.20;99.90
9043;DHT22;4556;49.150;8.808;2023-03-04T11:43:35;3.20;99.90
9043;DHT22;4556;49.150;8.808;2023-03-04T11:46:27;3.40;99.90
9043;DHT22;4556;49.150;8.808;2023-03-04T11:49:11;3.30;99.90
9043;DHT22;4556;49.150;8.808;2023-03-04T11:51:44;3.30;99.90
9043;DHT22;4556;49.150;8.808;2023-03-04T11:54:22;3.30;99.90
9043;DHT22;4556;49.150;8.808;2023-03-04T11:56:57;3.40;99.90
9043;DHT22;4556;49.150;8.808;2023-03-04T11:59:59;3.40;99.90
9043;DHT22;4556;49.150;8.808;2023-03-04T12:02:33;3.20;99.90
9043;DHT22;4556;49.150;8.808;2023-03-04T12:05:26;3.20;99.90
9043;DHT22;4556;49.150;8.808;2023-03-04T12:10:53;3.40;99.90
9043;DHT22;4556;49.150;8.808;2023-03-04T12:13:57;3.40;99.90
9043;DHT22;4556;49.150;8.808;2023-03-04T12:16:35;3.50;99.90
9043;DHT22;4556;49.150;8.808;2023-03-04T12:19:21;3.60;99.90
9043;DHT22;4556;49.150;8.808;2023-03-04T12:22:16;3.60;99.90
9043;DHT22;4556;49.150;8.808;2023-03-04T12:25:04;3.60;99.90
9043;DHT22;4556;49.150;8.808;2023-03-04T12:27:35;3.50;99.90
9043;DHT22;4556;49.150;8.808;2023-03-04T12:30:19;3.50;99.90
9043;DHT22;4556;49.150;8.808;2023-03-04T12:32:55;3.60;99.90
9043;DHT22;4556;49.150;8.808;2023-03-04T12:35:32;3.60;99.90
9043;DHT22;4556;49.150;8.808;2023-03-04T12:38:19;3.60;99.90
9043;DHT22;4556;49.150;8.808;2023-03-04T12:40:53;3.60;99.90
9043;DHT22;4556;49.150;8.808;2023-03-04T12:49:34;3.60;99.90
9043;DHT22;4556;49.150;8.808;2023-03-04T12:52:10;3.60;99.90
9043;DHT22;4556;49.150;8.808;2023-03-04T12:54:44;3.70;99.90
9043;DHT22;4556;49.150;8.808;2023-03-04T12:57:16;3.60;99.90
9043;DHT22;4556;49.150;8.808;2023-03-04T12:59:50;3.50;99.90
9043;DHT22;4556;49.150;8.808;2023-03-04T13:05:37;4.30;99.90
9043;DHT22;4556;49.150;8.808;2023-03-04T13:08:18;3.50;99.90
9043;DHT22;4556;49.150;8.808;2023-03-04T13:10:49;3.60;99.90
9043;DHT22;4556;49.150;8.808;2023-03-04T13:13:35;3.70;99.90
9043;DHT22;4556;49.150;8.808;2023-03-04T13:16:04;3.50;99.90
9043;DHT22;4556;49.150;8.808;2023-03-04T13:18:33;3.60;99.90
9043;DHT22;4556;49.150;8.808;2023-03-04T13:21:19;3.50;99.90
9043;DHT22;4556;49.150;8.808;2023-03-04T13:23:47;3.50;99.90
9043;DHT22;4556;49.150;8.808;2023-03-04T13:26:32;3.50;99.90
9043;DHT22;4556;49.150;8.808;2023-03-04T13:32:03;3.60;99.90
9043;DHT22;4556;49.150;8.808;2023-03-04T13:34:46;3.60;99.90
9043;DHT22;4556;49.150;8.808;2023-03-04T13:37:33;3.60;99.90
9043;DHT22;4556;49.150;8.808;2023-03-04T13:40:34;3.70;99.90
9043;DHT22;4556;49.150;8.808;2023-03-04T13:43:24;3.80;99.90
9043;DHT22;4556;49.150;8.808;2023-03-04T13:45:51;3.80;99.90
9043;DHT22;4556;49.150;8.808;2023-03-04T13:48:39;3.70;99.90
9043;DHT22;4556;49.150;8.808;2023-03-04T13:51:13;3.70;99.90
9043;DHT22;4556;49.150;8.808;2023-03-04T13:53:45;3.70;99.90
9043;DHT22;4556;49.150;8.808;2023-03-04T13:56:25;3.70;99.90
9043;DHT22;4556;49.150;8.808;2023-03-04T13:59:09;3.80;99.90
9043;DHT22;4556;49.150;8.808;2023-03-04T14:01:49;3.90;99.90
9043;DHT22;4556;49.150;8.808;2023-03-04T14:04:22;4.00;99.90
9043;DHT22;4556;49.150;8.808;2023-03-04T14:06:53;4.00;99.90
9043;DHT22;4556;49.150;8.808;2023-03-04T14:09:25;4.10;99.90
9043;DHT22;4556;49.150;8.808;2023-03-04T14:11:55;4.10;99.90
9043;DHT22;4556;49.150;8.808;2023-03-04T14:14:25;4.00;99.90
9043;DHT22;4556;49.150;8.808;2023-03-04T14:16:54;3.90;99.90
9043;DHT22;4556;49.150;8.808;2023-03-04T14:19:25;3.80;99.90
9043;DHT22;4556;49.150;8.808;2023-03-04T14:21:53;3.70;99.90
9043;DHT22;4556;49.150;8.808;2023-03-04T14:24:21;3.80;99.90
9043;DHT22;4556;49.150;8.808;2023-03-04T14:27:05;3.80;99.90
9043;DHT22;4556;49.150;8.808;2023-03-04T14:29:36;3.90;99.90
9043;DHT22;4556;49.150;8.808;2023-03-04T14:32:04;4.40;99.90
9043;DHT22;4556;49.150;8.808;2023-03-04T14:34:35;4.00;99.90
9043;DHT22;4556;49.150;8.808;2023-03-04T14:37:03;3.90;99.90
9043;DHT22;4556;49.150;8.808;2023-03-04T14:39:44;5.50;99.90
9043;DHT22;4556;49.150;8.808;2023-03-04T14:42:16;3.70;99.90
9043;DHT22;4556;49.150;8.808;2023-03-04T14:44:49;4.70;99.90
9043;DHT22;4556;49.150;8.808;2023-03-04T14:47:24;3.80;99.90
9043;DHT22;4556;49.150;8.808;2023-03-04T14:49:52;3.80;99.90
9043;DHT22;4556;49.150;8.808;2023-03-04T14:52:31;3.90;99.90
9043;DHT22;4556;49.150;8.808;2023-03-04T14:55:00;3.80;99.90
9043;DHT22;4556;49.150;8.808;2023-03-04T14:57:33;3.70;99.90
9043;DHT22;4556;49.150;8.808;2023-03-04T15:00:15;3.80;99.90
9043;DHT22;4556;49.150;8.808;2023-03-04T15:02:43;3.80;99.90
9043;DHT22;4556;49.150;8.808;2023-03-04T15:05:23;3.90;99.90
9043;DHT22;4556;49.150;8.808;2023-03-04T15:08:19;3.80;99.90
9043;DHT22;4556;49.150;8.808;2023-03-04T15:10:54;3.80;99.90
9043;DHT22;4556;49.150;8.808;2023-03-04T15:13:42;3.70;99.90
9043;DHT22;4556;49.150;8.808;2023-03-04T15:16:17;3.60;99.90
9043;DHT22;4556;49.150;8.808;2023-03-04T15:18:57;3.60;99.90
9043;DHT22;4556;49.150;8.808;2023-03-04T15:21:32;3.60;99.90
9043;DHT22;4556;49.150;8.808;2023-03-04T15:24:02;3.60;99.90
9043;DHT22;4556;49.150;8.808;2023-03-04T15:26:30;3.70;99.90
9043;DHT22;4556;49.150;8.808;2023-03-04T15:29:02;3.80;99.90
9043;DHT22;4556;49.150;8.808;2023-03-04T15:31:29;3.80;99.90
9043;DHT22;4556;49.150;8.808;2023-03-04T15:33:56;3.80;99.90
9043;DHT22;4556;49.150;8.808;2023-03-04T15:36:23;3.60;99.90
9043;DHT22;4556;49.150;8.808;2023-03-04T15:38:51;3.60;99.90
9043;DHT22;4556;49.150;8.808;2023-03-04T15:41:21;3.70;99.90
9043;DHT22;4556;49.150;8.808;2023-03-04T15:43:52;3.60;99.90
9043;DHT22;4556;49.150;8.808;2023-03-04T15:46:24;3.70;99.90
9043;DHT22;4556;49.150;8.808;2023-03-04T15:48:52;3.70;99.90
9043;DHT22;4556;49.150;8.808;2023-03-04T15:51:22;3.70;99.90
9043;DHT22;4556;49.150;8.808;2023-03-04T15:53:53;3.70;99.90
9043;DHT22;4556;49.150;8.808;2023-03-04T15:56:23;3.70;99.90
9043;DHT22;4556;49.150;8.808;2023-03-04T15:58:53;3.80;99.90
9043;DHT22;4556;49.150;8.808;2023-03-04T16:01:25;3.80;99.90
9043;DHT22;4556;49.150;8.808;2023-03-04T16:03:55;3.80;99.90
9043;DHT22;4556;49.150;8.808;2023-03-04T16:06:26;3.70;99.90
9043;DHT22;4556;49.150;8.808;2023-03-04T16:08:57;3.70;99.90
9043;DHT22;4556;49.150;8.808;2023-03-04T16:11:28;3.80;99.90
9043;DHT22;4556;49.150;8.808;2023-03-04T16:13:57;3.90;99.90
9043;DHT22;4556;49.150;8.808;2023-03-04T16:16:27;3.90;99.90
9043;DHT22;4556;49.150;8.808;2023-03-04T16:18:56;3.90;99.90
9043;DHT22;4556;49.150;8.808;2023-03-04T16:21:26;6.00;99.90
9043;DHT22;4556;49.150;8.808;2023-03-04T16:23:56;3.80;99.90
9043;DHT22;4556;49.150;8.808;2023-03-04T16:26:25;3.90;99.90
9043;DHT22;4556;49.150;8.808;2023-03-04T16:28:53;3.70;99.90
9043;DHT22;4556;49.150;8.808;2023-03-04T16:31:20;3.80;99.90
9043;DHT22;4556;49.150;8.808;2023-03-04T16:33:49;4.00;99.90
9043;DHT22;4556;49.150;8.808;2023-03-04T16:36:19;4.00;99.90
9043;DHT22;4556;49.150;8.808;2023-03-04T16:38:47;4.10;99.90
9043;DHT22;4556;49.150;8.808;2023-03-04T16:41:15;4.50;99.90
9043;DHT22;4556;49.150;8.808;2023-03-04T16:43:43;3.80;99.90
9043;DHT22;4556;49.150;8.808;2023-03-04T16:46:11;3.70;99.90
9043;DHT22;4556;49.150;8.808;2023-03-04T16:48:39;3.70;99.90
9043;DHT22;4556;49.150;8.808;2023-03-04T16:51:12;3.80;99.90
9043;DHT22;4556;49.150;8.808;2023-03-04T16:53:42;3.80;99.90